Aviation Digital Data Service (ADDS)

Output produced by METARs form (0437 UTC 19 August 2019)
found at http://www.aviationweather.gov/metar/data/
 
METAR text: EDLW 190420Z 19009KT CAVOK 13/10 Q1014
Conditions at: EDLW (DORTMUND/WICKEDE, DE) observed 0420 UTC 19 August 2019
Temperature: 13.0°C (55°F)
Dewpoint: 10.0°C (50°F) [RH = 82%]
Pressure (altimeter): 29.94 inches Hg (1014.0 mb)
Winds: from the S (190 degrees) at 10 MPH (9 knots; 4.6 m/s)
Visibility: 6 or more miles (10+ km)
Ceiling: ceiling and visibility are OK
Clouds: unknown
Weather: no significant weather observed at this time

METAR text: EDLW 190350Z 20010KT CAVOK 13/10 Q1013
Conditions at: EDLW (DORTMUND/WICKEDE, DE) observed 0350 UTC 19 August 2019
Temperature: 13.0°C (55°F)
Dewpoint: 10.0°C (50°F) [RH = 82%]
Pressure (altimeter): 29.91 inches Hg (1013.0 mb)
Winds: from the SSW (200 degrees) at 12 MPH (10 knots; 5.1 m/s)
Visibility: 6 or more miles (10+ km)
Ceiling: ceiling and visibility are OK
Clouds: unknown
Weather: no significant weather observed at this time

METAR text: EDLW 190320Z 21010KT CAVOK 13/10 Q1013
Conditions at: EDLW (DORTMUND/WICKEDE, DE) observed 0320 UTC 19 August 2019
Temperature: 13.0°C (55°F)
Dewpoint: 10.0°C (50°F) [RH = 82%]
Pressure (altimeter): 29.91 inches Hg (1013.0 mb)
Winds: from the SSW (210 degrees) at 12 MPH (10 knots; 5.1 m/s)
Visibility: 6 or more miles (10+ km)
Ceiling: ceiling and visibility are OK
Clouds: unknown
Weather: no significant weather observed at this time

METAR text: EDLW 190250Z AUTO 21010KT 9999 // NCD 13/10 Q1013
Conditions at: EDLW (DORTMUND/WICKEDE, DE) observed 0250 UTC 19 August 2019
Temperature: 13.0°C (55°F)
Dewpoint: 10.0°C (50°F) [RH = 82%]
Pressure (altimeter): 29.91 inches Hg (1013.0 mb)
Winds: from the SSW (210 degrees) at 12 MPH (10 knots; 5.1 m/s)
Visibility: 6 or more miles (10+ km)
Ceiling: at least 12,000 feet AGL
Clouds: sky clear below 12,000 feet AGL
Weather: no significant weather observed at this time

METAR text: EDLW 190220Z AUTO 20010KT 9999 // NCD 14/11 Q1013
Conditions at: EDLW (DORTMUND/WICKEDE, DE) observed 0220 UTC 19 August 2019
Temperature: 14.0°C (57°F)
Dewpoint: 11.0°C (52°F) [RH = 82%]
Pressure (altimeter): 29.91 inches Hg (1013.0 mb)
Winds: from the SSW (200 degrees) at 12 MPH (10 knots; 5.1 m/s)
Visibility: 6 or more miles (10+ km)
Ceiling: at least 12,000 feet AGL
Clouds: sky clear below 12,000 feet AGL
Weather: no significant weather observed at this time

METAR text: EDLW 190150Z AUTO 21010KT 9999 // NCD 14/11 Q1013
Conditions at: EDLW (DORTMUND/WICKEDE, DE) observed 0150 UTC 19 August 2019
Temperature: 14.0°C (57°F)
Dewpoint: 11.0°C (52°F) [RH = 82%]
Pressure (altimeter): 29.91 inches Hg (1013.0 mb)
Winds: from the SSW (210 degrees) at 12 MPH (10 knots; 5.1 m/s)
Visibility: 6 or more miles (10+ km)
Ceiling: at least 12,000 feet AGL
Clouds: sky clear below 12,000 feet AGL
Weather: no significant weather observed at this time

METAR text: EDLW 190120Z AUTO 21010KT 9999 // NCD 15/11 Q1012
Conditions at: EDLW (DORTMUND/WICKEDE, DE) observed 0120 UTC 19 August 2019
Temperature: 15.0°C (59°F)
Dewpoint: 11.0°C (52°F) [RH = 77%]
Pressure (altimeter): 29.88 inches Hg (1012.0 mb)
Winds: from the SSW (210 degrees) at 12 MPH (10 knots; 5.1 m/s)
Visibility: 6 or more miles (10+ km)
Ceiling: at least 12,000 feet AGL
Clouds: sky clear below 12,000 feet AGL
Weather: no significant weather observed at this time

METAR text: EDLW 190050Z AUTO 20010KT 9999 // NCD 14/12 Q1012
Conditions at: EDLW (DORTMUND/WICKEDE, DE) observed 0050 UTC 19 August 2019
Temperature: 14.0°C (57°F)
Dewpoint: 12.0°C (54°F) [RH = 88%]
Pressure (altimeter): 29.88 inches Hg (1012.0 mb)
Winds: from the SSW (200 degrees) at 12 MPH (10 knots; 5.1 m/s)
Visibility: 6 or more miles (10+ km)
Ceiling: at least 12,000 feet AGL
Clouds: sky clear below 12,000 feet AGL
Weather: no significant weather observed at this time

METAR text: EDLW 190020Z AUTO 21008KT 9999 // NCD 15/12 Q1012
Conditions at: EDLW (DORTMUND/WICKEDE, DE) observed 0020 UTC 19 August 2019
Temperature: 15.0°C (59°F)
Dewpoint: 12.0°C (54°F) [RH = 82%]
Pressure (altimeter): 29.88 inches Hg (1012.0 mb)
Winds: from the SSW (210 degrees) at 9 MPH (8 knots; 4.1 m/s)
Visibility: 6 or more miles (10+ km)
Ceiling: at least 12,000 feet AGL
Clouds: sky clear below 12,000 feet AGL
Weather: no significant weather observed at this time

METAR text: EDLW 182350Z AUTO 22009KT 9999 // NCD 15/13 Q1011
Conditions at: EDLW (DORTMUND/WICKEDE, DE) observed 2350 UTC 18 August 2019
Temperature: 15.0°C (59°F)
Dewpoint: 13.0°C (55°F) [RH = 88%]
Pressure (altimeter): 29.85 inches Hg (1011.0 mb)
Winds: from the SW (220 degrees) at 10 MPH (9 knots; 4.6 m/s)
Visibility: 6 or more miles (10+ km)
Ceiling: at least 12,000 feet AGL
Clouds: sky clear below 12,000 feet AGL
Weather: no significant weather observed at this time

METAR text: EDLW 182320Z AUTO 22010KT 9999 // NCD 16/14 Q1011
Conditions at: EDLW (DORTMUND/WICKEDE, DE) observed 2320 UTC 18 August 2019
Temperature: 16.0°C (61°F)
Dewpoint: 14.0°C (57°F) [RH = 88%]
Pressure (altimeter): 29.85 inches Hg (1011.0 mb)
Winds: from the SW (220 degrees) at 12 MPH (10 knots; 5.1 m/s)
Visibility: 6 or more miles (10+ km)
Ceiling: at least 12,000 feet AGL
Clouds: sky clear below 12,000 feet AGL
Weather: no significant weather observed at this time

METAR text: EDLW 182250Z AUTO 21010KT 9999 // FEW024/// 16/14 Q1011
Conditions at: EDLW (DORTMUND/WICKEDE, DE) observed 2250 UTC 18 August 2019
Temperature: 16.0°C (61°F)
Dewpoint: 14.0°C (57°F) [RH = 88%]
Pressure (altimeter): 29.85 inches Hg (1011.0 mb)
Winds: from the SSW (210 degrees) at 12 MPH (10 knots; 5.1 m/s)
Visibility: 6 or more miles (10+ km)
Ceiling: at least 12,000 feet AGL
Clouds: few clouds at 2400 feet AGL
Weather: no significant weather observed at this time

METAR text: EDLW 182220Z AUTO 20010KT 9999 // FEW037/// 16/14 Q1011
Conditions at: EDLW (DORTMUND/WICKEDE, DE) observed 2220 UTC 18 August 2019
Temperature: 16.0°C (61°F)
Dewpoint: 14.0°C (57°F) [RH = 88%]
Pressure (altimeter): 29.85 inches Hg (1011.0 mb)
Winds: from the SSW (200 degrees) at 12 MPH (10 knots; 5.1 m/s)
Visibility: 6 or more miles (10+ km)
Ceiling: at least 12,000 feet AGL
Clouds: few clouds at 3700 feet AGL
Weather: no significant weather observed at this time

METAR text: EDLW 182150Z AUTO 19008KT 9999 // NCD 16/14 Q1010
Conditions at: EDLW (DORTMUND/WICKEDE, DE) observed 2150 UTC 18 August 2019
Temperature: 16.0°C (61°F)
Dewpoint: 14.0°C (57°F) [RH = 88%]
Pressure (altimeter): 29.82 inches Hg (1010.0 mb)
Winds: from the S (190 degrees) at 9 MPH (8 knots; 4.1 m/s)
Visibility: 6 or more miles (10+ km)
Ceiling: at least 12,000 feet AGL
Clouds: sky clear below 12,000 feet AGL
Weather: no significant weather observed at this time

METAR text: EDLW 182120Z AUTO 17007KT 9999 // NCD 15/14 Q1010
Conditions at: EDLW (DORTMUND/WICKEDE, DE) observed 2120 UTC 18 August 2019
Temperature: 15.0°C (59°F)
Dewpoint: 14.0°C (57°F) [RH = 94%]
Pressure (altimeter): 29.82 inches Hg (1010.0 mb)
Winds: from the S (170 degrees) at 8 MPH (7 knots; 3.6 m/s)
Visibility: 6 or more miles (10+ km)
Ceiling: at least 12,000 feet AGL
Clouds: sky clear below 12,000 feet AGL
Weather: no significant weather observed at this time

METAR text: EDLW 182050Z AUTO 19007KT 9999 // NCD 16/14 Q1010
Conditions at: EDLW (DORTMUND/WICKEDE, DE) observed 2050 UTC 18 August 2019
Temperature: 16.0°C (61°F)
Dewpoint: 14.0°C (57°F) [RH = 88%]
Pressure (altimeter): 29.82 inches Hg (1010.0 mb)
Winds: from the S (190 degrees) at 8 MPH (7 knots; 3.6 m/s)
Visibility: 6 or more miles (10+ km)
Ceiling: at least 12,000 feet AGL
Clouds: sky clear below 12,000 feet AGL
Weather: no significant weather observed at this time

METAR text: EDLW 182020Z 19007KT CAVOK 16/14 Q1010
Conditions at: EDLW (DORTMUND/WICKEDE, DE) observed 2020 UTC 18 August 2019
Temperature: 16.0°C (61°F)
Dewpoint: 14.0°C (57°F) [RH = 88%]
Pressure (altimeter): 29.82 inches Hg (1010.0 mb)
Winds: from the S (190 degrees) at 8 MPH (7 knots; 3.6 m/s)
Visibility: 6 or more miles (10+ km)
Ceiling: ceiling and visibility are OK
Clouds: unknown
Weather: no significant weather observed at this time

METAR text: EDLW 181950Z 20006KT CAVOK 15/14 Q1010
Conditions at: EDLW (DORTMUND/WICKEDE, DE) observed 1950 UTC 18 August 2019
Temperature: 15.0°C (59°F)
Dewpoint: 14.0°C (57°F) [RH = 94%]
Pressure (altimeter): 29.82 inches Hg (1010.0 mb)
Winds: from the SSW (200 degrees) at 7 MPH (6 knots; 3.1 m/s)
Visibility: 6 or more miles (10+ km)
Ceiling: ceiling and visibility are OK
Clouds: unknown
Weather: no significant weather observed at this time

METAR text: EDLW 181920Z 20006KT CAVOK 16/15 Q1009
Conditions at: EDLW (DORTMUND/WICKEDE, DE) observed 1920 UTC 18 August 2019
Temperature: 16.0°C (61°F)
Dewpoint: 15.0°C (59°F) [RH = 94%]
Pressure (altimeter): 29.79 inches Hg (1009.0 mb)
Winds: from the SSW (200 degrees) at 7 MPH (6 knots; 3.1 m/s)
Visibility: 6 or more miles (10+ km)
Ceiling: ceiling and visibility are OK
Clouds: unknown
Weather: no significant weather observed at this time

METAR text: EDLW 181850Z 20005KT 9999 FEW020 17/15 Q1009
Conditions at: EDLW (DORTMUND/WICKEDE, DE) observed 1850 UTC 18 August 2019
Temperature: 17.0°C (63°F)
Dewpoint: 15.0°C (59°F) [RH = 88%]
Pressure (altimeter): 29.79 inches Hg (1009.0 mb)
Winds: from the SSW (200 degrees) at 6 MPH (5 knots; 2.6 m/s)
Visibility: 6 or more miles (10+ km)
Ceiling: at least 12,000 feet AGL
Clouds: few clouds at 2000 feet AGL
Weather: no significant weather observed at this time

METAR text: EDLW 181820Z 23006KT 9999 SCT018 18/15 Q1009
Conditions at: EDLW (DORTMUND/WICKEDE, DE) observed 1820 UTC 18 August 2019
Temperature: 18.0°C (64°F)
Dewpoint: 15.0°C (59°F) [RH = 83%]
Pressure (altimeter): 29.79 inches Hg (1009.0 mb)
Winds: from the SW (230 degrees) at 7 MPH (6 knots; 3.1 m/s)
Visibility: 6 or more miles (10+ km)
Ceiling: at least 12,000 feet AGL
Clouds: scattered clouds at 1800 feet AGL
Weather: no significant weather observed at this time

METAR text: EDLW 181750Z 23006KT 9999 FEW018 18/15 Q1009
Conditions at: EDLW (DORTMUND/WICKEDE, DE) observed 1750 UTC 18 August 2019
Temperature: 18.0°C (64°F)
Dewpoint: 15.0°C (59°F) [RH = 83%]
Pressure (altimeter): 29.79 inches Hg (1009.0 mb)
Winds: from the SW (230 degrees) at 7 MPH (6 knots; 3.1 m/s)
Visibility: 6 or more miles (10+ km)
Ceiling: at least 12,000 feet AGL
Clouds: few clouds at 1800 feet AGL
Weather: no significant weather observed at this time

METAR text: EDLW 181720Z 24007KT 200V290 CAVOK 18/15 Q1008
Conditions at: EDLW (DORTMUND/WICKEDE, DE) observed 1720 UTC 18 August 2019
Temperature: 18.0°C (64°F)
Dewpoint: 15.0°C (59°F) [RH = 83%]
Pressure (altimeter): 29.76 inches Hg (1008.0 mb)
Winds: from the WSW (240 degrees) at 8 MPH (7 knots; 3.6 m/s)
Visibility: 6 or more miles (10+ km)
Ceiling: ceiling and visibility are OK
Clouds: unknown
Weather: no significant weather observed at this time

METAR text: EDLW 181650Z 25006KT 220V300 9999 FEW014 SCT038 18/15 Q1008
Conditions at: EDLW (DORTMUND/WICKEDE, DE) observed 1650 UTC 18 August 2019
Temperature: 18.0°C (64°F)
Dewpoint: 15.0°C (59°F) [RH = 83%]
Pressure (altimeter): 29.76 inches Hg (1008.0 mb)
Winds: from the WSW (250 degrees) at 7 MPH (6 knots; 3.1 m/s)
Visibility: 6 or more miles (10+ km)
Ceiling: at least 12,000 feet AGL
Clouds: few clouds at 1400 feet AGL
scattered clouds at 3800 feet AGL
Weather: no significant weather observed at this time

METAR text: EDLW 181620Z 25007KT 190V310 9999 FEW011 SCT013 BKN028 18/16 Q1008
Conditions at: EDLW (DORTMUND/WICKEDE, DE) observed 1620 UTC 18 August 2019
Temperature: 18.0°C (64°F)
Dewpoint: 16.0°C (61°F) [RH = 88%]
Pressure (altimeter): 29.76 inches Hg (1008.0 mb)
Winds: from the WSW (250 degrees) at 8 MPH (7 knots; 3.6 m/s)
Visibility: 6 or more miles (10+ km)
Ceiling: 2800 feet AGL
Clouds: few clouds at 1100 feet AGL
scattered clouds at 1300 feet AGL
broken clouds at 2800 feet AGL
Weather: no significant weather observed at this time

METAR text: EDLW 181550Z 25007KT 230V300 9999 VCSH SCT012 OVC018 18/16 Q1008
Conditions at: EDLW (DORTMUND/WICKEDE, DE) observed 1550 UTC 18 August 2019
Temperature: 18.0°C (64°F)
Dewpoint: 16.0°C (61°F) [RH = 88%]
Pressure (altimeter): 29.76 inches Hg (1008.0 mb)
Winds: from the WSW (250 degrees) at 8 MPH (7 knots; 3.6 m/s)
Visibility: 6 or more miles (10+ km)
Ceiling: 1800 feet AGL
Clouds: scattered clouds at 1200 feet AGL
overcast cloud deck at 1800 feet AGL
Weather: VCSH  (showers in vicinity)

METAR text: EDLW 181520Z 24011KT 9999 VCSH SCT014 BKN018 19/17 Q1007
Conditions at: EDLW (DORTMUND/WICKEDE, DE) observed 1520 UTC 18 August 2019
Temperature: 19.0°C (66°F)
Dewpoint: 17.0°C (63°F) [RH = 88%]
Pressure (altimeter): 29.73 inches Hg (1007.0 mb)
Winds: from the WSW (240 degrees) at 13 MPH (11 knots; 5.7 m/s)
Visibility: 6 or more miles (10+ km)
Ceiling: 1800 feet AGL
Clouds: scattered clouds at 1400 feet AGL
broken clouds at 1800 feet AGL
Weather: VCSH  (showers in vicinity)

METAR text: EDLW 181450Z 24010KT 9999 VCSH OVC016 19/17 Q1007
Conditions at: EDLW (DORTMUND/WICKEDE, DE) observed 1450 UTC 18 August 2019
Temperature: 19.0°C (66°F)
Dewpoint: 17.0°C (63°F) [RH = 88%]
Pressure (altimeter): 29.73 inches Hg (1007.0 mb)
Winds: from the WSW (240 degrees) at 12 MPH (10 knots; 5.1 m/s)
Visibility: 6 or more miles (10+ km)
Ceiling: 1600 feet AGL
Clouds: overcast cloud deck at 1600 feet AGL
Weather: VCSH  (showers in vicinity)

METAR text: EDLW 181420Z 23012KT 9999 FEW015 OVC029 19/17 Q1006
Conditions at: EDLW (DORTMUND/WICKEDE, DE) observed 1420 UTC 18 August 2019
Temperature: 19.0°C (66°F)
Dewpoint: 17.0°C (63°F) [RH = 88%]
Pressure (altimeter): 29.70 inches Hg (1006.0 mb)
Winds: from the SW (230 degrees) at 14 MPH (12 knots; 6.2 m/s)
Visibility: 6 or more miles (10+ km)
Ceiling: 2900 feet AGL
Clouds: few clouds at 1500 feet AGL
overcast cloud deck at 2900 feet AGL
Weather: no significant weather observed at this time

METAR text: EDLW 181350Z 22011KT 9999 FEW014 BKN031 20/17 Q1006
Conditions at: EDLW (DORTMUND/WICKEDE, DE) observed 1350 UTC 18 August 2019
Temperature: 20.0°C (68°F)
Dewpoint: 17.0°C (63°F) [RH = 83%]
Pressure (altimeter): 29.70 inches Hg (1006.0 mb)
Winds: from the SW (220 degrees) at 13 MPH (11 knots; 5.7 m/s)
Visibility: 6 or more miles (10+ km)
Ceiling: 3100 feet AGL
Clouds: few clouds at 1400 feet AGL
broken clouds at 3100 feet AGL
Weather: no significant weather observed at this time

METAR text: EDLW 181320Z 24008KT 210V310 9999 VCSH FEW007 SCT034 BKN040 19/18 Q1005
Conditions at: EDLW (DORTMUND/WICKEDE, DE) observed 1320 UTC 18 August 2019
Temperature: 19.0°C (66°F)
Dewpoint: 18.0°C (64°F) [RH = 94%]
Pressure (altimeter): 29.68 inches Hg (1005.0 mb)
Winds: from the WSW (240 degrees) at 9 MPH (8 knots; 4.1 m/s)
Visibility: 6 or more miles (10+ km)
Ceiling: 4000 feet AGL
Clouds: few clouds at 700 feet AGL
scattered clouds at 3400 feet AGL
broken clouds at 4000 feet AGL
Weather: VCSH  (showers in vicinity)

METAR text: EDLW 181250Z 23007KT 200V270 9999 SCT048 19/18 Q1005
Conditions at: EDLW (DORTMUND/WICKEDE, DE) observed 1250 UTC 18 August 2019
Temperature: 19.0°C (66°F)
Dewpoint: 18.0°C (64°F) [RH = 94%]
Pressure (altimeter): 29.68 inches Hg (1005.0 mb)
Winds: from the SW (230 degrees) at 8 MPH (7 knots; 3.6 m/s)
Visibility: 6 or more miles (10+ km)
Ceiling: at least 12,000 feet AGL
Clouds: scattered clouds at 4800 feet AGL
Weather: no significant weather observed at this time

METAR text: EDLW 181220Z 14004KT 050V170 8000 SCT002 SCT005 BKN038 16/16 Q1005
Conditions at: EDLW (DORTMUND/WICKEDE, DE) observed 1220 UTC 18 August 2019
Temperature: 16.0°C (61°F)
Dewpoint: 16.0°C (61°F) [RH = 100%]
Pressure (altimeter): 29.68 inches Hg (1005.0 mb)
Winds: from the SE (140 degrees) at 5 MPH (4 knots; 2.1 m/s)
Visibility: 5 miles ( 8 km)
Ceiling: 3800 feet AGL
Clouds: scattered clouds at 200 feet AGL
scattered clouds at 500 feet AGL
broken clouds at 3800 feet AGL
Weather: no significant weather observed at this time

METAR text: EDLW 181150Z VRB02KT 2400 DZ BKN002 BKN008 15/15 Q1005
Conditions at: EDLW (DORTMUND/WICKEDE, DE) observed 1150 UTC 18 August 2019
Temperature: 15.0°C (59°F)
Dewpoint: 15.0°C (59°F) [RH = 100%]
Pressure (altimeter): 29.68 inches Hg (1005.0 mb)
Winds: variable direction winds at 2 MPH (2 knots; 1.0 m/s)
Visibility: 1.49 miles (2.40 km)
Ceiling: 200 feet AGL
Clouds: broken clouds at 200 feet AGL
broken clouds at 800 feet AGL
Weather: DZ  (moderate drizzle)

METAR text: EDLW 181120Z 34004KT 230V040 3300 DZ SCT003 BKN006 15/15 Q1004
Conditions at: EDLW (DORTMUND/WICKEDE, DE) observed 1120 UTC 18 August 2019
Temperature: 15.0°C (59°F)
Dewpoint: 15.0°C (59°F) [RH = 100%]
Pressure (altimeter): 29.65 inches Hg (1004.0 mb)
Winds: from the NNW (340 degrees) at 5 MPH (4 knots; 2.1 m/s)
Visibility: 2.05 miles (3.30 km)
Ceiling: 600 feet AGL
Clouds: scattered clouds at 300 feet AGL
broken clouds at 600 feet AGL
Weather: DZ  (moderate drizzle)

METAR text: EDLW 181050Z 04004KT 6000 -DZ FEW004 BKN013 15/15 Q1004
Conditions at: EDLW (DORTMUND/WICKEDE, DE) observed 1050 UTC 18 August 2019
Temperature: 15.0°C (59°F)
Dewpoint: 15.0°C (59°F) [RH = 100%]
Pressure (altimeter): 29.65 inches Hg (1004.0 mb)
Winds: from the NE (40 degrees) at 5 MPH (4 knots; 2.1 m/s)
Visibility: 4 miles ( 6 km)
Ceiling: 1300 feet AGL
Clouds: few clouds at 400 feet AGL
broken clouds at 1300 feet AGL
Weather: -DZ  (light drizzle)

METAR text: EDLW 181020Z VRB03KT 9999 FEW005 SCT013 BKN017 15/14 Q1004
Conditions at: EDLW (DORTMUND/WICKEDE, DE) observed 1020 UTC 18 August 2019
Temperature: 15.0°C (59°F)
Dewpoint: 14.0°C (57°F) [RH = 94%]
Pressure (altimeter): 29.65 inches Hg (1004.0 mb)
Winds: variable direction winds at 3 MPH (3 knots; 1.5 m/s)
Visibility: 6 or more miles (10+ km)
Ceiling: 1700 feet AGL
Clouds: few clouds at 500 feet AGL
scattered clouds at 1300 feet AGL
broken clouds at 1700 feet AGL
Weather: no significant weather observed at this time

METAR text: EDLW 180950Z 03004KT 340V070 6000 FEW006 OVC017 15/14 Q1005
Conditions at: EDLW (DORTMUND/WICKEDE, DE) observed 0950 UTC 18 August 2019
Temperature: 15.0°C (59°F)
Dewpoint: 14.0°C (57°F) [RH = 94%]
Pressure (altimeter): 29.68 inches Hg (1005.0 mb)
Winds: from the NNE (30 degrees) at 5 MPH (4 knots; 2.1 m/s)
Visibility: 4 miles ( 6 km)
Ceiling: 1700 feet AGL
Clouds: few clouds at 600 feet AGL
overcast cloud deck at 1700 feet AGL
Weather: no significant weather observed at this time

METAR text: EDLW 180920Z 04003KT 360V080 6000 SCT010 OVC023 15/14 Q1005
Conditions at: EDLW (DORTMUND/WICKEDE, DE) observed 0920 UTC 18 August 2019
Temperature: 15.0°C (59°F)
Dewpoint: 14.0°C (57°F) [RH = 94%]
Pressure (altimeter): 29.68 inches Hg (1005.0 mb)
Winds: from the NE (40 degrees) at 3 MPH (3 knots; 1.5 m/s)
Visibility: 4 miles ( 6 km)
Ceiling: 2300 feet AGL
Clouds: scattered clouds at 1000 feet AGL
overcast cloud deck at 2300 feet AGL
Weather: no significant weather observed at this time

METAR text: EDLW 180850Z VRB01KT 9999 FEW009 OVC033 16/14 Q1005
Conditions at: EDLW (DORTMUND/WICKEDE, DE) observed 0850 UTC 18 August 2019
Temperature: 16.0°C (61°F)
Dewpoint: 14.0°C (57°F) [RH = 88%]
Pressure (altimeter): 29.68 inches Hg (1005.0 mb)
Winds: variable direction winds at 1 MPH (1 knots; 0.5 m/s)
Visibility: 6 or more miles (10+ km)
Ceiling: 3300 feet AGL
Clouds: few clouds at 900 feet AGL
overcast cloud deck at 3300 feet AGL
Weather: no significant weather observed at this time

METAR text: EDLW 180820Z 14005KT 110V170 9999 FEW020 BKN033 15/14 Q1006
Conditions at: EDLW (DORTMUND/WICKEDE, DE) observed 0820 UTC 18 August 2019
Temperature: 15.0°C (59°F)
Dewpoint: 14.0°C (57°F) [RH = 94%]
Pressure (altimeter): 29.70 inches Hg (1006.0 mb)
Winds: from the SE (140 degrees) at 6 MPH (5 knots; 2.6 m/s)
Visibility: 6 or more miles (10+ km)
Ceiling: 3300 feet AGL
Clouds: few clouds at 2000 feet AGL
broken clouds at 3300 feet AGL
Weather: no significant weather observed at this time

METAR text: EDLW 180750Z 16005KT 140V200 9999 -DZ FEW023 BKN040 15/13 Q1006
Conditions at: EDLW (DORTMUND/WICKEDE, DE) observed 0750 UTC 18 August 2019
Temperature: 15.0°C (59°F)
Dewpoint: 13.0°C (55°F) [RH = 88%]
Pressure (altimeter): 29.70 inches Hg (1006.0 mb)
Winds: from the SSE (160 degrees) at 6 MPH (5 knots; 2.6 m/s)
Visibility: 6 or more miles (10+ km)
Ceiling: 4000 feet AGL
Clouds: few clouds at 2300 feet AGL
broken clouds at 4000 feet AGL
Weather: -DZ  (light drizzle)

METAR text: EDLW 180720Z 17005KT 9999 -DZ BKN044 15/13 Q1006
Conditions at: EDLW (DORTMUND/WICKEDE, DE) observed 0720 UTC 18 August 2019
Temperature: 15.0°C (59°F)
Dewpoint: 13.0°C (55°F) [RH = 88%]
Pressure (altimeter): 29.70 inches Hg (1006.0 mb)
Winds: from the S (170 degrees) at 6 MPH (5 knots; 2.6 m/s)
Visibility: 6 or more miles (10+ km)
Ceiling: 4400 feet AGL
Clouds: broken clouds at 4400 feet AGL
Weather: -DZ  (light drizzle)

METAR text: EDLW 180650Z 16004KT 130V200 9999 -DZ FEW027 BKN048 14/13 Q1006
Conditions at: EDLW (DORTMUND/WICKEDE, DE) observed 0650 UTC 18 August 2019
Temperature: 14.0°C (57°F)
Dewpoint: 13.0°C (55°F) [RH = 94%]
Pressure (altimeter): 29.70 inches Hg (1006.0 mb)
Winds: from the SSE (160 degrees) at 5 MPH (4 knots; 2.1 m/s)
Visibility: 6 or more miles (10+ km)
Ceiling: 4800 feet AGL
Clouds: few clouds at 2700 feet AGL
broken clouds at 4800 feet AGL
Weather: -DZ  (light drizzle)

METAR text: EDLW 180620Z 15005KT 9999 FEW036 14/13 Q1007
Conditions at: EDLW (DORTMUND/WICKEDE, DE) observed 0620 UTC 18 August 2019
Temperature: 14.0°C (57°F)
Dewpoint: 13.0°C (55°F) [RH = 94%]
Pressure (altimeter): 29.73 inches Hg (1007.0 mb)
Winds: from the SSE (150 degrees) at 6 MPH (5 knots; 2.6 m/s)
Visibility: 6 or more miles (10+ km)
Ceiling: at least 12,000 feet AGL
Clouds: few clouds at 3600 feet AGL
Weather: no significant weather observed at this time

METAR text: EDLW 180550Z 17004KT 9999 SCT043 14/13 Q1007
Conditions at: EDLW (DORTMUND/WICKEDE, DE) observed 0550 UTC 18 August 2019
Temperature: 14.0°C (57°F)
Dewpoint: 13.0°C (55°F) [RH = 94%]
Pressure (altimeter): 29.73 inches Hg (1007.0 mb)
Winds: from the S (170 degrees) at 5 MPH (4 knots; 2.1 m/s)
Visibility: 6 or more miles (10+ km)
Ceiling: at least 12,000 feet AGL
Clouds: scattered clouds at 4300 feet AGL
Weather: no significant weather observed at this time

METAR text: EDLW 180520Z 21007KT 9999 -RA FEW009 BKN032 14/13 Q1007
Conditions at: EDLW (DORTMUND/WICKEDE, DE) observed 0520 UTC 18 August 2019
Temperature: 14.0°C (57°F)
Dewpoint: 13.0°C (55°F) [RH = 94%]
Pressure (altimeter): 29.73 inches Hg (1007.0 mb)
Winds: from the SSW (210 degrees) at 8 MPH (7 knots; 3.6 m/s)
Visibility: 6 or more miles (10+ km)
Ceiling: 3200 feet AGL
Clouds: few clouds at 900 feet AGL
broken clouds at 3200 feet AGL
Weather: -RA  (light rain)

METAR text: EDLW 180450Z 22007KT 9999 -RA FEW006 OVC027 14/13 Q1007
Conditions at: EDLW (DORTMUND/WICKEDE, DE) observed 0450 UTC 18 August 2019
Temperature: 14.0°C (57°F)
Dewpoint: 13.0°C (55°F) [RH = 94%]
Pressure (altimeter): 29.73 inches Hg (1007.0 mb)
Winds: from the SW (220 degrees) at 8 MPH (7 knots; 3.6 m/s)
Visibility: 6 or more miles (10+ km)
Ceiling: 2700 feet AGL
Clouds: few clouds at 600 feet AGL
overcast cloud deck at 2700 feet AGL
Weather: -RA  (light rain)

METAR text: EDLW 180420Z 24007KT 210V290 9999 -RA SCT006 BKN014 14/13 Q1007
Conditions at: EDLW (DORTMUND/WICKEDE, DE) observed 0420 UTC 18 August 2019
Temperature: 14.0°C (57°F)
Dewpoint: 13.0°C (55°F) [RH = 94%]
Pressure (altimeter): 29.73 inches Hg (1007.0 mb)
Winds: from the WSW (240 degrees) at 8 MPH (7 knots; 3.6 m/s)
Visibility: 6 or more miles (10+ km)
Ceiling: 1400 feet AGL
Clouds: scattered clouds at 600 feet AGL
broken clouds at 1400 feet AGL
Weather: -RA  (light rain)

METAR text: EDLW 180350Z 26008KT 220V310 6000 -RA OVC004 15/14 Q1007
Conditions at: EDLW (DORTMUND/WICKEDE, DE) observed 0350 UTC 18 August 2019
Temperature: 15.0°C (59°F)
Dewpoint: 14.0°C (57°F) [RH = 94%]
Pressure (altimeter): 29.73 inches Hg (1007.0 mb)
Winds: from the W (260 degrees) at 9 MPH (8 knots; 4.1 m/s)
Visibility: 4 miles ( 6 km)
Ceiling: 400 feet AGL
Clouds: overcast cloud deck at 400 feet AGL
Weather: -RA  (light rain)

METAR text: EDLW 180320Z 20005KT 160V240 4100 -RA BR BKN018 BKN029 17/16 Q1007
Conditions at: EDLW (DORTMUND/WICKEDE, DE) observed 0320 UTC 18 August 2019
Temperature: 17.0°C (63°F)
Dewpoint: 16.0°C (61°F) [RH = 94%]
Pressure (altimeter): 29.73 inches Hg (1007.0 mb)
Winds: from the SSW (200 degrees) at 6 MPH (5 knots; 2.6 m/s)
Visibility: 2.55 miles (4.10 km)
Ceiling: 1800 feet AGL
Clouds: broken clouds at 1800 feet AGL
broken clouds at 2900 feet AGL
Weather: -RA BR  (light rain, mist)

METAR text: EDLW 180250Z AUTO 20005KT 9999 // FEW021/// BKN033/// BKN061/// 17/16 Q1007
Conditions at: EDLW (DORTMUND/WICKEDE, DE) observed 0250 UTC 18 August 2019
Temperature: 17.0°C (63°F)
Dewpoint: 16.0°C (61°F) [RH = 94%]
Pressure (altimeter): 29.73 inches Hg (1007.0 mb)
Winds: from the SSW (200 degrees) at 6 MPH (5 knots; 2.6 m/s)
Visibility: 6 or more miles (10+ km)
Ceiling: 3300 feet AGL
Clouds: few clouds at 2100 feet AGL
broken clouds at 3300 feet AGL
broken clouds at 6100 feet AGL
Weather: no significant weather observed at this time

METAR text: EDLW 180220Z AUTO 18007KT 9999 // SCT018/// BKN100/// 17/16 Q1007
Conditions at: EDLW (DORTMUND/WICKEDE, DE) observed 0220 UTC 18 August 2019
Temperature: 17.0°C (63°F)
Dewpoint: 16.0°C (61°F) [RH = 94%]
Pressure (altimeter): 29.73 inches Hg (1007.0 mb)
Winds: from the S (180 degrees) at 8 MPH (7 knots; 3.6 m/s)
Visibility: 6 or more miles (10+ km)
Ceiling: 10000 feet AGL
Clouds: scattered clouds at 1800 feet AGL
broken clouds at 10000 feet AGL
Weather: no significant weather observed at this time

METAR text: EDLW 180150Z AUTO 18008KT 9999 // SCT019/// BKN034/// BKN066/// 18/16 Q1007
Conditions at: EDLW (DORTMUND/WICKEDE, DE) observed 0150 UTC 18 August 2019
Temperature: 18.0°C (64°F)
Dewpoint: 16.0°C (61°F) [RH = 88%]
Pressure (altimeter): 29.73 inches Hg (1007.0 mb)
Winds: from the S (180 degrees) at 9 MPH (8 knots; 4.1 m/s)
Visibility: 6 or more miles (10+ km)
Ceiling: 3400 feet AGL
Clouds: scattered clouds at 1900 feet AGL
broken clouds at 3400 feet AGL
broken clouds at 6600 feet AGL
Weather: no significant weather observed at this time

METAR text: EDLW 180120Z AUTO 19008KT 9999 // FEW020/// BKN038/// OVC071/// 18/16 Q1007
Conditions at: EDLW (DORTMUND/WICKEDE, DE) observed 0120 UTC 18 August 2019
Temperature: 18.0°C (64°F)
Dewpoint: 16.0°C (61°F) [RH = 88%]
Pressure (altimeter): 29.73 inches Hg (1007.0 mb)
Winds: from the S (190 degrees) at 9 MPH (8 knots; 4.1 m/s)
Visibility: 6 or more miles (10+ km)
Ceiling: 3800 feet AGL
Clouds: few clouds at 2000 feet AGL
broken clouds at 3800 feet AGL
overcast cloud deck at 7100 feet AGL
Weather: no significant weather observed at this time

METAR text: EDLW 180050Z AUTO 19008KT 9999 // SCT020/// BKN024/// BKN038/// 18/16 Q1007
Conditions at: EDLW (DORTMUND/WICKEDE, DE) observed 0050 UTC 18 August 2019
Temperature: 18.0°C (64°F)
Dewpoint: 16.0°C (61°F) [RH = 88%]
Pressure (altimeter): 29.73 inches Hg (1007.0 mb)
Winds: from the S (190 degrees) at 9 MPH (8 knots; 4.1 m/s)
Visibility: 6 or more miles (10+ km)
Ceiling: 2400 feet AGL
Clouds: scattered clouds at 2000 feet AGL
broken clouds at 2400 feet AGL
broken clouds at 3800 feet AGL
Weather: no significant weather observed at this time

METAR text: EDLW 180020Z AUTO 19008KT 9999 // BKN021/// BKN041/// 18/16 Q1007
Conditions at: EDLW (DORTMUND/WICKEDE, DE) observed 0020 UTC 18 August 2019
Temperature: 18.0°C (64°F)
Dewpoint: 16.0°C (61°F) [RH = 88%]
Pressure (altimeter): 29.73 inches Hg (1007.0 mb)
Winds: from the S (190 degrees) at 9 MPH (8 knots; 4.1 m/s)
Visibility: 6 or more miles (10+ km)
Ceiling: 2100 feet AGL
Clouds: broken clouds at 2100 feet AGL
broken clouds at 4100 feet AGL
Weather: no significant weather observed at this time

METAR text: EDLW 172350Z AUTO 19008KT 9999 // BKN021/// BKN110/// 18/16 Q1007
Conditions at: EDLW (DORTMUND/WICKEDE, DE) observed 2350 UTC 17 August 2019
Temperature: 18.0°C (64°F)
Dewpoint: 16.0°C (61°F) [RH = 88%]
Pressure (altimeter): 29.73 inches Hg (1007.0 mb)
Winds: from the S (190 degrees) at 9 MPH (8 knots; 4.1 m/s)
Visibility: 6 or more miles (10+ km)
Ceiling: 2100 feet AGL
Clouds: broken clouds at 2100 feet AGL
broken clouds at 11000 feet AGL
Weather: no significant weather observed at this time

METAR text: EDLW 172320Z AUTO 19011KT 9999 // SCT110/// 18/15 Q1008
Conditions at: EDLW (DORTMUND/WICKEDE, DE) observed 2320 UTC 17 August 2019
Temperature: 18.0°C (64°F)
Dewpoint: 15.0°C (59°F) [RH = 83%]
Pressure (altimeter): 29.76 inches Hg (1008.0 mb)
Winds: from the S (190 degrees) at 13 MPH (11 knots; 5.7 m/s)
Visibility: 6 or more miles (10+ km)
Ceiling: at least 12,000 feet AGL
Clouds: scattered clouds at 11000 feet AGL
Weather: no significant weather observed at this time

METAR text: EDLW 172250Z AUTO 19011KT 9999 // FEW021/// SCT110/// 18/15 Q1008
Conditions at: EDLW (DORTMUND/WICKEDE, DE) observed 2250 UTC 17 August 2019
Temperature: 18.0°C (64°F)
Dewpoint: 15.0°C (59°F) [RH = 83%]
Pressure (altimeter): 29.76 inches Hg (1008.0 mb)
Winds: from the S (190 degrees) at 13 MPH (11 knots; 5.7 m/s)
Visibility: 6 or more miles (10+ km)
Ceiling: at least 12,000 feet AGL
Clouds: few clouds at 2100 feet AGL
scattered clouds at 11000 feet AGL
Weather: no significant weather observed at this time

METAR text: EDLW 172220Z AUTO 19010KT 9999 // BKN022/// BKN130/// BKN160/// 18/16 Q1008
Conditions at: EDLW (DORTMUND/WICKEDE, DE) observed 2220 UTC 17 August 2019
Temperature: 18.0°C (64°F)
Dewpoint: 16.0°C (61°F) [RH = 88%]
Pressure (altimeter): 29.76 inches Hg (1008.0 mb)
Winds: from the S (190 degrees) at 12 MPH (10 knots; 5.1 m/s)
Visibility: 6 or more miles (10+ km)
Ceiling: 2200 feet AGL
Clouds: broken clouds at 2200 feet AGL
broken clouds at 13000 feet AGL
broken clouds at 16000 feet AGL
Weather: no significant weather observed at this time

METAR text: EDLW 172150Z AUTO 19010KT 9999 // BKN023/// BKN120/// BKN150/// 19/16 Q1008
Conditions at: EDLW (DORTMUND/WICKEDE, DE) observed 2150 UTC 17 August 2019
Temperature: 19.0°C (66°F)
Dewpoint: 16.0°C (61°F) [RH = 83%]
Pressure (altimeter): 29.76 inches Hg (1008.0 mb)
Winds: from the S (190 degrees) at 12 MPH (10 knots; 5.1 m/s)
Visibility: 6 or more miles (10+ km)
Ceiling: 2300 feet AGL
Clouds: broken clouds at 2300 feet AGL
broken clouds at 12000 feet AGL
broken clouds at 15000 feet AGL
Weather: no significant weather observed at this time

METAR text: EDLW 172120Z AUTO 20011KT 9999 // BKN023/// OVC170/// 19/16 Q1008
Conditions at: EDLW (DORTMUND/WICKEDE, DE) observed 2120 UTC 17 August 2019
Temperature: 19.0°C (66°F)
Dewpoint: 16.0°C (61°F) [RH = 83%]
Pressure (altimeter): 29.76 inches Hg (1008.0 mb)
Winds: from the SSW (200 degrees) at 13 MPH (11 knots; 5.7 m/s)
Visibility: 6 or more miles (10+ km)
Ceiling: 2300 feet AGL
Clouds: broken clouds at 2300 feet AGL
overcast cloud deck at 17000 feet AGL
Weather: no significant weather observed at this time

METAR text: EDLW 172050Z AUTO 18011KT 9999 // BKN025/// OVC170/// 19/16 Q1008
Conditions at: EDLW (DORTMUND/WICKEDE, DE) observed 2050 UTC 17 August 2019
Temperature: 19.0°C (66°F)
Dewpoint: 16.0°C (61°F) [RH = 83%]
Pressure (altimeter): 29.76 inches Hg (1008.0 mb)
Winds: from the S (180 degrees) at 13 MPH (11 knots; 5.7 m/s)
Visibility: 6 or more miles (10+ km)
Ceiling: 2500 feet AGL
Clouds: broken clouds at 2500 feet AGL
overcast cloud deck at 17000 feet AGL
Weather: no significant weather observed at this time

METAR text: EDLW 172020Z AUTO 19010KT 9999 // BKN027/// BKN170/// 19/16 Q1008
Conditions at: EDLW (DORTMUND/WICKEDE, DE) observed 2020 UTC 17 August 2019
Temperature: 19.0°C (66°F)
Dewpoint: 16.0°C (61°F) [RH = 83%]
Pressure (altimeter): 29.76 inches Hg (1008.0 mb)
Winds: from the S (190 degrees) at 12 MPH (10 knots; 5.1 m/s)
Visibility: 6 or more miles (10+ km)
Ceiling: 2700 feet AGL
Clouds: broken clouds at 2700 feet AGL
broken clouds at 17000 feet AGL
Weather: no significant weather observed at this time

METAR text: EDLW 171950Z 19011KT 9999 BKN027 19/16 Q1008
Conditions at: EDLW (DORTMUND/WICKEDE, DE) observed 1950 UTC 17 August 2019
Temperature: 19.0°C (66°F)
Dewpoint: 16.0°C (61°F) [RH = 83%]
Pressure (altimeter): 29.76 inches Hg (1008.0 mb)
Winds: from the S (190 degrees) at 13 MPH (11 knots; 5.7 m/s)
Visibility: 6 or more miles (10+ km)
Ceiling: 2700 feet AGL
Clouds: broken clouds at 2700 feet AGL
Weather: no significant weather observed at this time

METAR text: EDLW 171920Z 18010KT 9999 OVC026 19/16 Q1008
Conditions at: EDLW (DORTMUND/WICKEDE, DE) observed 1920 UTC 17 August 2019
Temperature: 19.0°C (66°F)
Dewpoint: 16.0°C (61°F) [RH = 83%]
Pressure (altimeter): 29.76 inches Hg (1008.0 mb)
Winds: from the S (180 degrees) at 12 MPH (10 knots; 5.1 m/s)
Visibility: 6 or more miles (10+ km)
Ceiling: 2600 feet AGL
Clouds: overcast cloud deck at 2600 feet AGL
Weather: no significant weather observed at this time

METAR text: EDLW 171850Z 19010KT 9999 FEW018 OVC029 19/16 Q1008
Conditions at: EDLW (DORTMUND/WICKEDE, DE) observed 1850 UTC 17 August 2019
Temperature: 19.0°C (66°F)
Dewpoint: 16.0°C (61°F) [RH = 83%]
Pressure (altimeter): 29.76 inches Hg (1008.0 mb)
Winds: from the S (190 degrees) at 12 MPH (10 knots; 5.1 m/s)
Visibility: 6 or more miles (10+ km)
Ceiling: 2900 feet AGL
Clouds: few clouds at 1800 feet AGL
overcast cloud deck at 2900 feet AGL
Weather: no significant weather observed at this time

METAR text: EDLW 171820Z 20010KT 9999 FEW016 OVC025 19/16 Q1008
Conditions at: EDLW (DORTMUND/WICKEDE, DE) observed 1820 UTC 17 August 2019
Temperature: 19.0°C (66°F)
Dewpoint: 16.0°C (61°F) [RH = 83%]
Pressure (altimeter): 29.76 inches Hg (1008.0 mb)
Winds: from the SSW (200 degrees) at 12 MPH (10 knots; 5.1 m/s)
Visibility: 6 or more miles (10+ km)
Ceiling: 2500 feet AGL
Clouds: few clouds at 1600 feet AGL
overcast cloud deck at 2500 feet AGL
Weather: no significant weather observed at this time

METAR text: EDLW 171750Z 20011KT 9999 FEW016 SCT022 BKN034 19/16 Q1008
Conditions at: EDLW (DORTMUND/WICKEDE, DE) observed 1750 UTC 17 August 2019
Temperature: 19.0°C (66°F)
Dewpoint: 16.0°C (61°F) [RH = 83%]
Pressure (altimeter): 29.76 inches Hg (1008.0 mb)
Winds: from the SSW (200 degrees) at 13 MPH (11 knots; 5.7 m/s)
Visibility: 6 or more miles (10+ km)
Ceiling: 3400 feet AGL
Clouds: few clouds at 1600 feet AGL
scattered clouds at 2200 feet AGL
broken clouds at 3400 feet AGL
Weather: no significant weather observed at this time

METAR text: EDLW 171720Z 21013KT 9999 VCSH BKN024 20/16 Q1008
Conditions at: EDLW (DORTMUND/WICKEDE, DE) observed 1720 UTC 17 August 2019
Temperature: 20.0°C (68°F)
Dewpoint: 16.0°C (61°F) [RH = 78%]
Pressure (altimeter): 29.76 inches Hg (1008.0 mb)
Winds: from the SSW (210 degrees) at 15 MPH (13 knots; 6.7 m/s)
Visibility: 6 or more miles (10+ km)
Ceiling: 2400 feet AGL
Clouds: broken clouds at 2400 feet AGL
Weather: VCSH  (showers in vicinity)

METAR text: EDLW 171650Z 21011KT 9999 BKN026 BKN033 20/16 Q1008
Conditions at: EDLW (DORTMUND/WICKEDE, DE) observed 1650 UTC 17 August 2019
Temperature: 20.0°C (68°F)
Dewpoint: 16.0°C (61°F) [RH = 78%]
Pressure (altimeter): 29.76 inches Hg (1008.0 mb)
Winds: from the SSW (210 degrees) at 13 MPH (11 knots; 5.7 m/s)
Visibility: 6 or more miles (10+ km)
Ceiling: 2600 feet AGL
Clouds: broken clouds at 2600 feet AGL
broken clouds at 3300 feet AGL
Weather: no significant weather observed at this time

Forecast for: EDLW (DORTMUND/WICKEDE, DE)
Text: TAF EDLW 190350Z 1904/1924 21009KT CAVOK
Forecast period: 0400 to 0600 UTC 19 August 2019
Forecast type: FROM: standard forecast or significant change
Winds: from the SSW (210 degrees) at 10 MPH (9 knots; 4.6 m/s)
Visibility: 6 or more miles 10+ km)
Ceiling: unknown
Clouds: missing
Weather: NSW  (no significant weather)
Text: BECMG 1906/1908 24014KT
Forecast period: 0600 to 1600 UTC 19 August 2019
Forecast type: BECOMING: Conditions expected to become as follows by 0800 UTC 19 August 2019
Winds: from the WSW (240 degrees) at 16 MPH (14 knots; 7.2 m/s)
Visibility: 6 or more miles 10+ km)
Ceiling: unknown
Clouds: missing
Weather: NSW  (no significant weather)
Text: PROB30
Forecast period: 1100 to 1500 UTC 19 August 2019
Forecast type: TEMPORARY: The following changes expected for less than half the time period
Winds: from the WSW (250 degrees) at 17 MPH (15 knots; 7.7 m/s)
gusting to 29 MPH (25 knots; 12.9 m/s)
Visibility: missing
Ceiling: unknown
Clouds: missing
Weather: no significant weather forecast for this period
Text: TEMPO 1911/1915 25015G25KT
Forecast period: 1600 UTC 19 August 2019 to 0000 UTC 20 August 2019
Forecast type: BECOMING: Conditions expected to become as follows by 1900 UTC 19 August 2019
Winds: from the SSW (210 degrees) at 8 MPH (7 knots; 3.6 m/s)
Visibility: 6 or more miles 10+ km)
Ceiling: unknown
Clouds: missing
Weather: NSW  (no significant weather)